createdAt,value
2018-11-01T07:05:46.275Z,2.90
2018-11-01T07:08:14.469Z,3.00
2018-11-01T07:10:42.687Z,3.10
2018-11-01T07:13:10.954Z,3.20
2018-11-01T07:15:39.176Z,3.30
2018-11-01T07:18:07.404Z,3.40
2018-11-01T07:20:35.623Z,3.50
2018-11-01T07:23:03.860Z,3.50
2018-11-01T07:25:32.179Z,3.60
2018-11-01T07:28:00.358Z,3.70
2018-11-01T07:30:28.577Z,3.80
2018-11-01T07:32:56.864Z,4.00
2018-11-01T07:35:25.088Z,4.10
2018-11-01T07:37:53.326Z,4.20
2018-11-01T07:40:21.536Z,4.30
2018-11-01T07:42:49.772Z,4.40
2018-11-01T07:45:18.025Z,4.60
2018-11-01T07:47:46.536Z,4.70
2018-11-01T07:50:15.089Z,4.90
2018-11-01T07:52:43.408Z,5.00
2018-11-01T07:55:12.871Z,5.20
2018-11-01T07:57:41.113Z,5.30
2018-11-01T08:00:11.343Z,5.40
2018-11-01T08:02:39.576Z,5.50
2018-11-01T08:05:08.955Z,5.60
2018-11-01T08:07:37.240Z,5.60
2018-11-01T08:10:08.121Z,5.70
2018-11-01T08:12:36.362Z,5.70
2018-11-01T08:15:05.897Z,5.70
2018-11-01T08:17:34.124Z,5.70
2018-11-01T08:20:02.535Z,5.80
2018-11-01T08:22:30.613Z,5.90
2018-11-01T08:24:58.844Z,6.00
2018-11-01T08:27:27.147Z,6.10
2018-11-01T08:29:55.393Z,6.20
2018-11-01T08:32:23.648Z,6.30
2018-11-01T08:34:51.896Z,6.50
2018-11-01T08:37:20.140Z,6.70
2018-11-01T08:39:48.375Z,6.80
2018-11-01T08:42:16.588Z,7.00
2018-11-01T08:44:44.829Z,7.10
2018-11-01T08:47:13.044Z,7.20
2018-11-01T08:49:41.288Z,7.40
2018-11-01T08:52:09.512Z,7.60
2018-11-01T08:54:37.744Z,7.80
2018-11-01T08:57:06.364Z,8.10
2018-11-01T08:59:34.636Z,8.40
2018-11-01T09:02:02.865Z,8.60
2018-11-01T09:04:31.221Z,8.70
2018-11-01T09:06:59.441Z,8.80
2018-11-01T09:09:27.695Z,8.80
2018-11-01T09:11:55.920Z,8.90
2018-11-01T09:14:24.195Z,9.00
2018-11-01T09:16:52.425Z,9.20
2018-11-01T09:19:20.685Z,9.40
2018-11-01T09:21:48.896Z,9.60
2018-11-01T09:24:17.145Z,9.80
2018-11-01T09:26:45.434Z,9.90
2018-11-01T09:29:13.648Z,10.00
2018-11-01T09:31:41.876Z,10.10
2018-11-01T09:34:10.192Z,10.20
2018-11-01T09:36:38.430Z,10.20
2018-11-01T09:39:08.584Z,10.30
2018-11-01T09:41:36.814Z,10.40
2018-11-01T09:44:05.100Z,10.50
2018-11-01T09:46:33.725Z,10.50
2018-11-01T09:49:01.872Z,10.50
2018-11-01T09:51:30.128Z,10.60
2018-11-01T09:53:58.377Z,10.60
2018-11-01T09:56:26.984Z,10.70
2018-11-01T09:58:55.185Z,10.80
2018-11-01T10:01:23.400Z,10.80
2018-11-01T10:03:51.632Z,10.90
2018-11-01T10:06:19.900Z,11.00
2018-11-01T10:08:48.132Z,11.20
2018-11-01T10:11:16.378Z,11.30
2018-11-01T10:13:44.630Z,11.50
2018-11-01T10:16:13.001Z,11.60
2018-11-01T10:18:41.123Z,11.60
2018-11-01T10:21:09.480Z,11.70
2018-11-01T10:23:37.641Z,11.50
2018-11-01T10:26:05.901Z,11.50
2018-11-01T10:28:34.138Z,11.50
2018-11-01T10:31:02.384Z,11.50
2018-11-01T10:33:30.649Z,11.60
2018-11-01T10:35:58.904Z,11.70
2018-11-01T10:38:27.135Z,11.70
2018-11-01T10:40:55.504Z,11.80
2018-11-01T10:43:23.673Z,11.80
2018-11-01T10:45:51.913Z,11.90
2018-11-01T10:48:20.140Z,12.00
2018-11-01T10:50:48.385Z,12.00
2018-11-01T10:53:16.625Z,12.10
2018-11-01T10:55:44.872Z,12.20
2018-11-01T10:58:13.115Z,12.30
2018-11-01T11:00:47.001Z,12.30
2018-11-01T11:03:15.167Z,12.40
2018-11-01T11:05:43.421Z,12.50
2018-11-01T11:08:11.662Z,12.60
2018-11-01T11:10:39.899Z,12.60
2018-11-01T11:13:08.133Z,12.70
2018-11-01T11:15:36.389Z,12.80
2018-11-01T11:18:04.628Z,12.80
2018-11-01T11:20:33.073Z,12.80
2018-11-01T11:23:01.124Z,12.90
2018-11-01T11:25:29.376Z,12.90
2018-11-01T11:27:57.613Z,12.90
2018-11-01T11:30:26.016Z,13.00
2018-11-01T11:32:54.143Z,13.00
2018-11-01T11:35:22.439Z,13.00
2018-11-01T11:37:50.634Z,13.00
2018-11-01T11:40:18.888Z,13.10
2018-11-01T11:42:47.136Z,13.10
2018-11-01T11:45:15.391Z,13.10
2018-11-01T11:47:43.729Z,13.10
2018-11-01T11:50:13.064Z,13.20
2018-11-01T11:52:42.145Z,13.20
2018-11-01T11:55:11.071Z,13.20
2018-11-01T11:57:39.613Z,13.30
2018-11-01T12:00:09.885Z,13.30
2018-11-01T12:02:38.157Z,13.30
2018-11-01T12:05:06.904Z,13.30
2018-11-01T12:07:35.152Z,13.40
2018-11-01T12:10:03.385Z,13.40
2018-11-01T12:12:31.640Z,13.40
2018-11-01T12:14:59.952Z,13.40
2018-11-01T12:17:28.204Z,13.40
2018-11-01T12:19:56.437Z,13.40
2018-11-01T12:22:24.788Z,13.40
2018-11-01T12:24:52.953Z,13.30
2018-11-01T12:27:21.196Z,13.40
2018-11-01T12:29:49.437Z,13.30
2018-11-01T12:32:17.712Z,13.30
2018-11-01T12:34:45.953Z,13.20
2018-11-01T12:37:14.232Z,13.20
2018-11-01T12:39:42.474Z,13.20
2018-11-01T12:42:10.737Z,13.30
2018-11-01T12:44:38.956Z,13.30
2018-11-01T12:47:07.204Z,13.30
2018-11-01T12:49:35.497Z,13.30
2018-11-01T12:52:03.719Z,13.30
2018-11-01T12:54:31.956Z,13.40
2018-11-01T12:57:00.208Z,13.40
2018-11-01T12:59:28.453Z,13.40
2018-11-01T13:01:56.707Z,13.30
2018-11-01T13:04:24.934Z,13.30
2018-11-01T13:06:53.212Z,13.30
2018-11-01T13:09:21.450Z,13.20
2018-11-01T13:11:49.723Z,13.20
2018-11-01T13:14:17.960Z,13.20
2018-11-01T13:16:46.213Z,13.10
2018-11-01T13:19:14.441Z,13.10
2018-11-01T13:21:42.708Z,13.10
2018-11-01T13:24:10.941Z,13.10
2018-11-01T13:26:39.204Z,13.00
2018-11-01T13:29:07.446Z,13.00
2018-11-01T13:31:35.692Z,13.00
2018-11-01T13:34:03.934Z,13.00
2018-11-01T13:36:32.241Z,13.00
2018-11-01T13:39:00.498Z,12.90
2018-11-01T13:41:28.806Z,12.90
2018-11-01T13:43:57.032Z,12.80
2018-11-01T13:46:25.339Z,12.70
2018-11-01T13:48:53.545Z,12.70
2018-11-01T13:51:21.778Z,12.70
2018-11-01T13:53:50.028Z,12.60
2018-11-01T13:56:18.295Z,12.60
2018-11-01T13:58:46.537Z,12.50
2018-11-01T14:01:14.773Z,12.50
2018-11-01T14:03:43.099Z,12.40
2018-11-01T14:06:11.382Z,12.30
2018-11-01T14:08:39.602Z,12.30
2018-11-01T14:11:07.844Z,12.20
2018-11-01T14:13:36.201Z,12.20
2018-11-01T14:16:04.380Z,12.20
2018-11-01T14:18:32.635Z,12.10
2018-11-01T14:21:00.872Z,12.10
2018-11-01T14:23:29.121Z,12.00
2018-11-01T14:25:57.360Z,12.00
2018-11-01T14:28:25.601Z,11.90
2018-11-01T14:30:53.864Z,11.90
2018-11-01T14:33:22.133Z,11.80
2018-11-01T14:35:50.372Z,11.70
2018-11-01T14:38:18.645Z,11.70
2018-11-01T14:40:46.876Z,11.60
2018-11-01T14:43:15.156Z,11.60
2018-11-01T14:45:43.395Z,11.50
2018-11-01T14:48:11.653Z,11.50
2018-11-01T14:50:39.900Z,11.40
2018-11-01T14:53:08.712Z,11.40
2018-11-01T14:55:37.649Z,11.30
2018-11-01T14:58:06.227Z,11.30
2018-11-01T15:00:32.924Z,11.20
2018-11-01T15:03:01.200Z,11.10
2018-11-01T15:05:29.462Z,11.10
2018-11-01T15:07:57.733Z,11.00
2018-11-01T15:10:25.972Z,10.90
2018-11-01T15:12:54.270Z,10.90
2018-11-01T15:15:22.472Z,10.90
2018-11-01T15:17:50.730Z,10.80
2018-11-01T15:20:18.959Z,10.70
2018-11-01T15:22:47.208Z,10.70
2018-11-01T15:25:15.453Z,10.60
2018-11-01T15:27:43.712Z,10.60
2018-11-01T15:30:13.882Z,10.50
2018-11-01T15:32:42.158Z,10.50
2018-11-01T15:35:10.413Z,10.40
2018-11-01T15:37:38.674Z,10.40
2018-11-01T15:40:09.724Z,10.40
2018-11-01T15:42:37.944Z,10.30
2018-11-01T15:45:07.348Z,10.30
2018-11-01T15:47:35.616Z,10.30
2018-11-01T15:50:04.142Z,10.30
2018-11-01T15:52:32.464Z,10.20
2018-11-01T15:55:00.716Z,10.10
2018-11-01T15:57:28.960Z,10.00
2018-11-01T15:59:57.233Z,9.90
2018-11-01T16:02:25.548Z,9.90
2018-11-01T16:04:53.716Z,9.80
2018-11-01T16:07:21.953Z,9.80
2018-11-01T16:09:50.206Z,9.70
2018-11-01T16:12:18.444Z,9.70
2018-11-01T16:14:46.707Z,9.60
2018-11-01T16:17:14.943Z,9.60
2018-11-01T16:19:43.228Z,9.50
2018-11-01T16:22:11.464Z,9.50
2018-11-01T16:24:39.730Z,9.50
2018-11-01T16:27:08.091Z,9.40
2018-11-01T16:29:36.228Z,9.40
2018-11-01T16:32:04.532Z,9.40
2018-11-01T16:34:32.799Z,9.30
2018-11-01T16:37:01.070Z,9.30
2018-11-01T16:39:29.302Z,9.20
2018-11-01T16:41:57.596Z,9.20
2018-11-01T16:44:25.804Z,9.20
2018-11-01T16:46:54.044Z,9.10
2018-11-01T16:49:22.300Z,9.10
2018-11-01T16:51:50.535Z,9.10
2018-11-01T16:54:18.805Z,9.00
2018-11-01T16:56:47.041Z,9.00
2018-11-01T16:59:15.284Z,8.90
2018-11-01T17:01:43.543Z,8.90
2018-11-01T17:04:11.816Z,8.90
2018-11-01T17:06:40.037Z,8.80
2018-11-01T17:09:09.612Z,8.80
2018-11-01T17:11:38.076Z,8.70
2018-11-01T17:14:06.368Z,8.70
2018-11-01T17:16:35.140Z,8.70
2018-11-01T17:19:03.392Z,8.70
2018-11-01T17:21:31.632Z,8.60
2018-11-01T17:23:59.880Z,8.60
2018-11-01T17:26:28.103Z,8.60
2018-11-01T17:28:56.358Z,8.60
2018-11-01T17:31:24.613Z,8.50
2018-11-01T17:33:52.886Z,8.50
2018-11-01T17:36:21.149Z,8.50
2018-11-01T17:38:49.396Z,8.40
2018-11-01T17:41:17.665Z,8.40
2018-11-01T17:43:45.976Z,8.30
2018-11-01T17:46:14.311Z,8.30
2018-11-01T17:48:42.424Z,8.30
2018-11-01T17:51:10.714Z,8.20
2018-11-01T17:53:38.952Z,8.20
2018-11-01T17:56:07.230Z,8.20
2018-11-01T17:58:35.457Z,8.20
2018-11-01T18:01:03.710Z,8.10
2018-11-01T18:03:31.953Z,8.10
2018-11-01T18:06:00.200Z,8.10
2018-11-01T18:08:28.562Z,8.10
2018-11-01T18:10:56.731Z,8.10
2018-11-01T18:13:25.068Z,8.00
2018-11-01T18:15:53.337Z,8.00
2018-11-01T18:18:21.572Z,8.00
2018-11-01T18:20:49.840Z,7.90
2018-11-01T18:23:18.093Z,7.90
2018-11-01T18:25:50.067Z,7.90
2018-11-01T18:28:19.188Z,7.80
2018-11-01T18:30:47.484Z,7.80
2018-11-01T18:33:15.807Z,7.80
2018-11-01T18:35:44.068Z,7.80
2018-11-01T18:38:12.351Z,7.80
2018-11-01T18:40:40.609Z,7.70
2018-11-01T18:43:08.852Z,7.70
2018-11-01T18:45:37.104Z,7.70
2018-11-01T18:48:05.507Z,7.70
2018-11-01T18:50:33.760Z,7.60
2018-11-01T18:53:01.990Z,7.60
2018-11-01T18:55:30.252Z,7.60
2018-11-01T18:57:58.500Z,7.60
2018-11-01T19:00:26.786Z,7.50
2018-11-01T19:02:55.009Z,7.50
2018-11-01T19:05:23.280Z,7.50
2018-11-01T19:07:51.509Z,7.50
2018-11-01T19:10:19.744Z,7.40
2018-11-01T19:12:48.004Z,7.40
2018-11-01T19:15:16.663Z,7.40
2018-11-01T19:17:44.850Z,7.40
2018-11-01T19:20:13.563Z,7.40
2018-11-01T19:22:41.815Z,7.40
2018-11-01T19:25:10.528Z,7.30
2018-11-01T19:27:38.959Z,7.30
2018-11-01T19:30:08.400Z,7.30
2018-11-01T19:32:36.668Z,7.30
2018-11-01T19:35:05.789Z,7.20
2018-11-01T19:37:34.048Z,7.20
2018-11-01T19:40:02.377Z,7.20
2018-11-01T19:42:30.589Z,7.20
2018-11-01T19:44:58.840Z,7.20
2018-11-01T19:47:27.103Z,7.20
2018-11-01T19:49:55.336Z,7.20
2018-11-01T19:52:23.596Z,7.10
2018-11-01T19:54:51.937Z,7.10
2018-11-01T19:57:20.100Z,7.10
2018-11-01T19:59:48.333Z,7.10
2018-11-01T20:02:16.590Z,7.10
2018-11-01T20:04:44.822Z,7.20
2018-11-01T20:07:13.067Z,7.20
2018-11-01T20:09:41.312Z,7.40
2018-11-01T20:12:09.592Z,7.70
2018-11-01T20:14:37.866Z,7.80
2018-11-01T20:17:06.629Z,8.10
2018-11-01T20:19:34.997Z,8.70
2018-11-01T20:22:03.156Z,8.90
2018-11-01T20:24:31.385Z,9.10
2018-11-01T20:26:59.621Z,9.20
2018-11-01T20:29:27.840Z,9.40
2018-11-01T20:31:56.132Z,9.70
2018-11-01T20:34:24.353Z,9.80
2018-11-01T20:36:52.584Z,9.90
2018-11-01T20:39:20.848Z,10.10
2018-11-01T20:41:49.096Z,10.30
2018-11-01T20:46:50.949Z,10.40
2018-11-01T20:49:19.196Z,10.60
2018-11-01T20:51:47.433Z,10.60
2018-11-01T20:54:15.684Z,10.60
2018-11-01T20:56:43.945Z,10.70
2018-11-01T20:59:12.201Z,10.80
2018-11-01T21:01:40.436Z,10.90
2018-11-01T21:04:08.704Z,10.90
2018-11-01T21:06:36.953Z,10.90
2018-11-01T21:09:08.137Z,11.00
2018-11-01T21:11:36.490Z,11.00
2018-11-01T21:14:04.897Z,11.00
2018-11-01T21:16:33.161Z,11.10
2018-11-01T21:19:01.433Z,11.30
2018-11-01T21:21:29.675Z,11.20
2018-11-01T21:23:57.953Z,11.10
2018-11-01T21:26:26.201Z,11.30
2018-11-01T21:28:54.502Z,11.30
2018-11-01T21:31:22.733Z,11.20
2018-11-01T21:33:51.032Z,11.00
2018-11-01T21:36:19.261Z,11.00
2018-11-01T21:38:47.520Z,10.90
